Time;durP1;ratioP1;P1;durP2;ratioP2;P2;SDS_P1;SDS_P2;PMS_P1;PMS_P2;Temp;Humidity;BMP_temperature;BMP_pressure;BME280_temperature;BME280_humidity;BME280_pressure;Samples;Min_cycle;Max_cycle;Signal;HPM_P1;HPM_P2
2022/07/12 00:01:13;;;;;;;4.70;4.20;;;;;;;18.09;69.07;100719.38;5035260;28;20061;-58
2022/07/12 00:03:57;;;;;;;5.15;4.65;;;;;;;18.09;69.10;100722.00;5035715;28;20056;-58
2022/07/12 00:06:43;;;;;;;5.18;4.13;;;;;;;18.10;68.96;100725.53;5036188;28;20056;-58
2022/07/12 00:09:27;;;;;;;5.82;4.57;;;;;;;18.09;68.90;100723.78;5034921;28;20067;-57
2022/07/12 00:12:11;;;;;;;4.53;4.13;;;;;;;18.09;68.93;100724.63;5034896;28;20076;-58
2022/07/12 00:14:55;;;;;;;4.60;4.13;;;;;;;18.09;68.70;100731.66;5035862;28;20049;-58
2022/07/12 00:17:44;;;;;;;6.50;4.35;;;;;;;18.08;68.93;100729.91;5035746;28;20053;-59
2022/07/12 00:20:28;;;;;;;5.40;4.57;;;;;;;18.08;68.85;100735.16;5034805;28;20080;-58
2022/07/12 00:23:12;;;;;;;5.35;4.05;;;;;;;18.07;68.85;100734.25;5034991;28;20055;-58
2022/07/12 00:25:56;;;;;;;4.03;3.60;;;;;;;18.07;68.89;100736.03;5036064;28;20049;-58
2022/07/12 00:28:41;;;;;;;4.55;3.95;;;;;;;18.06;69.02;100735.13;5035304;28;20570;-58
2022/07/12 00:31:27;;;;;;;4.88;4.10;;;;;;;18.07;68.99;100736.03;5034590;28;20052;-58
2022/07/12 00:34:12;;;;;;;5.07;4.38;;;;;;;18.07;69.00;100738.66;5034899;28;20056;-58
2022/07/12 00:36:56;;;;;;;5.53;4.18;;;;;;;18.06;68.90;100727.25;5035010;28;20044;-58
2022/07/12 00:39:40;;;;;;;5.60;4.40;;;;;;;18.06;68.61;100719.41;5035222;28;20084;-58
2022/07/12 00:42:25;;;;;;;6.20;5.25;;;;;;;18.06;69.00;100719.41;5035334;28;20044;-58
2022/07/12 00:45:13;;;;;;;7.25;5.30;;;;;;;18.06;68.75;100714.16;5034296;28;20061;-58
2022/07/12 00:47:57;;;;;;;5.43;4.30;;;;;;;18.06;68.79;100710.66;5034753;28;20107;-58
2022/07/12 00:50:41;;;;;;;;;;;;;;;18.05;68.82;100712.44;5035786;28;20043;-60
2022/07/12 00:53:25;;;;;;;3.88;3.35;;;;;;;18.04;68.88;100715.03;5034915;28;19920;-58
2022/07/12 00:56:09;;;;;;;4.88;4.30;;;;;;;18.04;68.79;100715.94;5034994;28;20075;-58
2022/07/12 00:58:53;;;;;;;4.75;3.97;;;;;;;18.06;68.78;100713.28;5035177;28;20088;-59
2022/07/12 01:01:38;;;;;;;7.13;4.00;;;;;;;18.03;69.05;100706.31;5034950;28;20060;-58
2022/07/12 01:04:22;;;;;;;7.63;4.70;;;;;;;18.04;68.82;100715.94;5034108;28;20079;-59
2022/07/12 01:07:06;;;;;;;;;;;;;;;18.03;68.61;100708.94;5034538;28;20172;-59
2022/07/12 01:09:54;;;;;;;6.53;4.07;;;;;;;18.02;68.85;100715.06;5034235;28;19924;-60
2022/07/12 01:12:38;;;;;;;5.75;3.60;;;;;;;18.02;68.82;100711.56;5033575;28;20057;-60
2022/07/12 01:15:28;;;;;;;5.10;4.22;;;;;;;18.03;68.72;100710.69;5034621;28;20512;-59
2022/07/12 01:18:13;;;;;;;9.63;4.88;;;;;;;18.03;68.61;100705.44;5033788;28;20052;-58
2022/07/12 01:20:57;;;;;;;6.28;4.05;;;;;;;18.01;68.75;100709.81;5033639;28;20119;-59
2022/07/12 01:23:41;;;;;;;5.68;4.70;;;;;;;18.02;68.92;100708.94;5034424;28;20044;-58
2022/07/12 01:26:25;;;;;;;12.70;5.05;;;;;;;18.01;68.92;100710.69;5033388;28;20053;-60
2022/07/12 01:29:10;;;;;;;7.28;5.15;;;;;;;18.01;68.75;100715.94;5034489;28;20530;-59
2022/07/12 01:31:56;;;;;;;7.90;4.72;;;;;;;18.01;68.84;100715.06;5033034;28;20094;-59
2022/07/12 01:35:03;;;;;;;9.40;4.93;;;;;;;18.01;68.73;100717.69;5034001;28;20412;-60
2022/07/12 01:37:50;;;;;;;7.05;5.32;;;;;;;18.00;68.66;100722.06;5033441;28;20523;-59
2022/07/12 01:40:35;;;;;;;11.35;5.15;;;;;;;17.99;68.67;100720.31;5033108;28;20095;-59
2022/07/12 01:43:21;;;;;;;10.05;4.70;;;;;;;17.99;68.70;100717.69;5034103;28;20133;-59
2022/07/12 01:46:06;;;;;;;6.00;4.13;;;;;;;18.00;68.67;100721.16;5033217;28;20184;-59
2022/07/12 01:48:49;;;;;;;6.07;4.78;;;;;;;17.98;68.69;100718.56;5034320;28;20068;-59
2022/07/12 01:51:33;;;;;;;6.68;5.13;;;;;;;17.99;68.60;100716.81;5033493;28;20045;-60
2022/07/12 01:54:17;;;;;;;10.00;5.45;;;;;;;17.96;68.64;100708.06;5034048;28;20052;-60
2022/07/12 01:57:04;;;;;;;5.45;4.32;;;;;;;17.98;68.48;100720.34;5033408;28;20045;-59
2022/07/12 01:59:48;;;;;;;7.38;4.50;;;;;;;17.96;68.75;100718.56;5032342;28;20103;-60
2022/07/12 02:02:32;;;;;;;7.07;4.60;;;;;;;17.96;68.59;100715.94;5032398;28;20148;-59
2022/07/12 02:05:16;;;;;;;5.30;4.43;;;;;;;17.95;68.61;100711.56;5033064;28;20052;-59
2022/07/12 02:08:00;;;;;;;5.57;4.82;;;;;;;17.95;68.57;100711.56;5033999;28;20053;-59
2022/07/12 02:10:44;;;;;;;6.45;4.72;;;;;;;17.95;68.54;100710.69;5033259;28;20045;-60
2022/07/12 02:13:28;;;;;;;7.57;4.63;;;;;;;17.94;68.56;100708.94;5033467;28;20048;-60
2022/07/12 02:16:11;;;;;;;7.22;5.45;;;;;;;17.93;68.60;100707.19;5033176;28;20045;-59
2022/07/12 02:18:58;;;;;;;7.60;4.60;;;;;;;17.93;68.58;100708.06;5033837;28;20542;-58
2022/07/12 02:21:42;;;;;;;5.13;4.25;;;;;;;17.92;68.64;100701.09;5032586;28;20401;-59
2022/07/12 02:24:26;;;;;;;5.80;5.05;;;;;;;17.92;68.64;100697.56;5032920;28;20447;-58
2022/07/12 02:27:13;;;;;;;8.38;5.03;;;;;;;17.91;68.66;100688.84;5032539;28;20083;-58
2022/07/12 02:29:57;;;;;;;6.13;5.15;;;;;;;17.91;68.71;100693.19;5032532;28;20584;-59
2022/07/12 02:32:41;;;;;;;6.03;4.80;;;;;;;17.91;68.56;100690.56;5033520;28;20096;-58
2022/07/12 02:35:25;;;;;;;6.90;5.20;;;;;;;17.90;68.39;100691.50;5033090;28;20044;-60
2022/07/12 02:38:12;;;;;;;6.20;5.25;;;;;;;17.89;68.47;100693.22;5033087;28;20092;-60
2022/07/12 02:40:58;;;;;;;6.63;4.85;;;;;;;17.89;68.45;100698.47;5033124;28;20056;-59
2022/07/12 02:43:43;;;;;;;6.88;5.30;;;;;;;17.88;68.49;100691.47;5031915;28;20448;-60
2022/07/12 02:46:27;;;;;;;5.88;5.05;;;;;;;17.89;68.55;100700.22;5032853;28;20064;-60
2022/07/12 02:49:10;;;;;;;6.40;4.97;;;;;;;17.88;68.41;100698.47;5033056;28;20095;-59
2022/07/12 02:51:54;;;;;;;7.63;5.18;;;;;;;17.88;68.40;100704.59;5032101;28;20096;-59
2022/07/12 02:54:38;;;;;;;8.32;6.38;;;;;;;17.87;68.20;100704.59;5033481;28;20072;-60
2022/07/12 02:57:22;;;;;;;5.55;4.95;;;;;;;17.87;68.41;100707.22;5032769;28;20040;-60
2022/07/12 03:00:07;;;;;;;5.95;4.93;;;;;;;17.87;68.50;100710.69;5033188;28;20056;-60
2022/07/12 03:02:51;;;;;;;7.45;5.78;;;;;;;17.86;68.26;100711.56;5032317;28;20151;-60
2022/07/12 03:05:36;;;;;;;6.15;5.55;;;;;;;17.86;68.62;100711.56;5033514;28;20048;-60
2022/07/12 03:08:22;;;;;;;8.07;7.05;;;;;;;17.84;68.46;100713.31;5033197;28;20080;-60
2022/07/12 03:11:06;;;;;;;7.85;5.85;;;;;;;17.83;68.38;100708.97;5032582;28;20133;-60
2022/07/12 03:13:50;;;;;;;11.75;6.55;;;;;;;17.85;68.31;100711.59;5032597;28;20048;-59
2022/07/12 03:16:35;;;;;;;9.10;6.10;;;;;;;17.83;68.31;100711.59;5032635;28;20415;-58
2022/07/12 03:19:21;;;;;;;6.53;5.82;;;;;;;17.83;68.32;100706.34;5032209;28;20460;-61
2022/07/12 03:22:05;;;;;;;6.85;5.70;;;;;;;17.83;68.26;100703.72;5032710;28;20567;-59
2022/07/12 03:24:52;;;;;;;8.60;6.43;;;;;;;17.83;68.33;100703.72;5033196;28;20045;-59
2022/07/12 03:27:36;;;;;;;7.70;6.00;;;;;;;17.81;68.37;100703.75;5032680;28;20413;-60
2022/07/12 03:30:20;;;;;;;6.72;6.03;;;;;;;17.81;68.35;100700.25;5032049;28;20053;-60
2022/07/12 03:33:04;;;;;;;6.80;6.10;;;;;;;17.81;68.24;100708.97;5032803;28;20072;-60
2022/07/12 03:35:48;;;;;;;7.53;6.68;;;;;;;17.80;68.29;100712.47;5035897;28;20543;-60
2022/07/12 03:38:32;;;;;;;7.43;6.22;;;;;;;17.81;68.26;100710.75;5035900;28;20044;-60
2022/07/12 03:41:16;;;;;;;7.22;6.53;;;;;;;17.79;68.34;100715.97;5036460;28;20389;-59
2022/07/12 03:44:00;;;;;;;8.13;6.43;;;;;;;17.79;68.25;100709.88;5036427;28;20045;-59
2022/07/12 03:46:44;;;;;;;6.70;6.05;;;;;;;17.78;68.11;100705.50;5036352;28;20048;-58
2022/07/12 03:49:28;;;;;;;7.75;5.97;;;;;;;17.78;68.30;100702.88;5035187;28;20405;-58
2022/07/12 03:52:11;;;;;;;7.13;5.85;;;;;;;17.78;68.27;100705.50;5035107;28;20467;-58
2022/07/12 03:54:55;;;;;;;9.13;6.70;;;;;;;17.76;68.37;100712.50;5035572;28;20095;-58
2022/07/12 03:57:39;;;;;;;7.45;6.20;;;;;;;17.76;68.06;100712.50;5036015;28;20091;-60
2022/07/12 04:00:23;;;;;;;8.88;6.80;;;;;;;17.74;68.18;100719.50;5036042;28;20047;-59
2022/07/12 04:03:10;;;;;;;5.95;5.35;;;;;;;17.74;68.00;100720.38;5035578;28;20111;-60
2022/07/12 04:05:54;;;;;;;7.40;6.53;;;;;;;17.74;68.06;100724.72;5035613;28;20041;-59
2022/07/12 04:08:38;;;;;;;7.72;6.90;;;;;;;17.74;68.04;100722.13;5035902;28;20053;-59
2022/07/12 04:11:24;;;;;;;8.43;6.20;;;;;;;17.71;68.10;100717.75;5035467;28;20099;-60
2022/07/12 04:14:08;;;;;;;10.93;7.20;;;;;;;17.72;68.00;100727.38;5035456;28;20083;-60
2022/07/12 04:16:53;;;;;;;6.80;6.10;;;;;;;17.72;68.18;100726.47;5035371;28;20095;-59
2022/07/12 04:19:37;;;;;;;8.98;6.70;;;;;;;17.69;68.10;100727.38;5036028;28;20102;-60
2022/07/12 04:22:24;;;;;;;6.50;5.90;;;;;;;17.70;68.24;100726.50;5035007;28;20049;-60
2022/07/12 04:25:09;;;;;;;8.35;6.80;;;;;;;17.69;67.95;100730.00;5035113;28;20138;-59
2022/07/12 04:27:55;;;;;;;8.93;6.63;;;;;;;17.69;68.09;100727.38;5034207;28;20086;-59
2022/07/12 04:30:39;;;;;;;8.93;6.63;;;;;;;17.70;68.16;100736.97;5035258;28;20098;-60
2022/07/12 04:33:25;;;;;;;9.18;6.57;;;;;;;17.71;67.97;100740.47;5034658;28;20133;-59
2022/07/12 04:36:09;;;;;;;9.52;6.53;;;;;;;17.69;68.09;100731.72;5035062;28;20107;-60
2022/07/12 04:38:53;;;;;;;8.52;6.72;;;;;;;17.69;67.93;100735.22;5035156;28;20052;-60
2022/07/12 04:41:40;;;;;;;7.00;5.97;;;;;;;17.68;67.98;100733.50;5035234;28;20448;-60
2022/07/12 04:44:24;;;;;;;9.68;7.13;;;;;;;17.68;68.05;100738.72;5035309;28;20052;-59
2022/07/12 04:47:09;;;;;;;10.77;7.20;;;;;;;17.69;68.08;100739.59;5034697;28;20100;-60
2022/07/12 04:49:53;;;;;;;7.93;7.13;;;;;;;17.68;67.83;100740.47;5035163;28;20125;-60
2022/07/12 04:52:37;;;;;;;8.05;7.15;;;;;;;17.69;68.37;100742.22;5034369;28;20076;-59
2022/07/12 04:55:21;;;;;;;8.93;7.40;;;;;;;17.67;68.04;100750.09;5034430;28;20090;-59
2022/07/12 04:58:05;;;;;;;9.18;6.57;;;;;;;17.68;67.99;100753.56;5035122;28;20092;-60
2022/07/12 05:00:52;;;;;;;10.57;6.68;;;;;;;17.67;67.96;100754.47;5034925;28;20056;-59
2022/07/12 05:03:36;;;;;;;7.63;6.78;;;;;;;17.68;67.87;100756.19;5034978;28;20048;-58
2022/07/12 05:06:20;;;;;;;10.32;6.50;;;;;;;17.67;67.82;100757.94;5033813;28;20531;-58
2022/07/12 05:09:04;;;;;;;8.48;6.65;;;;;;;17.67;67.98;100750.09;5034560;28;20053;-59
2022/07/12 05:11:53;;;;;;;8.65;6.28;;;;;;;17.67;67.96;100746.63;5034958;28;20103;-58
2022/07/12 05:14:37;;;;;;;8.10;7.18;;;;;;;17.67;67.99;100749.22;5033420;28;20099;-58
2022/07/12 05:17:21;;;;;;;10.38;8.23;;;;;;;17.65;67.85;100739.63;5034478;28;20436;-59
2022/07/12 05:20:10;;;;;;;10.00;6.68;;;;;;;17.67;68.02;100741.38;5033962;28;20131;-58
2022/07/12 05:23:04;;;;;;;9.57;7.45;;;;;;;17.67;68.09;100749.22;5034650;28;20053;-60
2022/07/12 05:25:54;;;;;;;8.52;6.78;;;;;;;17.65;68.04;100755.34;5034402;28;20068;-59
2022/07/12 05:28:42;;;;;;;13.13;8.93;;;;;;;17.67;68.09;100757.94;5033630;28;20052;-60
2022/07/12 05:31:28;;;;;;;8.18;6.93;;;;;;;17.67;68.12;100757.09;5033731;28;20163;-60
2022/07/12 05:34:14;;;;;;;10.95;8.05;;;;;;;17.67;68.09;100755.34;5034491;28;20096;-59
2022/07/12 05:37:00;;;;;;;11.43;7.65;;;;;;;17.67;67.95;100757.94;5033638;28;20041;-60
2022/07/12 05:39:44;;;;;;;9.85;7.78;;;;;;;17.68;68.20;100756.19;5033058;28;20198;-58
2022/07/12 05:42:30;;;;;;;12.00;8.63;;;;;;;17.67;68.11;100752.72;5033030;28;20527;-58
2022/07/12 05:45:14;;;;;;;9.10;7.63;;;;;;;17.68;67.94;100759.69;5033817;28;20084;-58
2022/07/12 05:47:58;;;;;;;9.85;8.68;;;;;;;17.65;68.13;100771.06;5033555;28;20048;-59
2022/07/12 05:50:44;;;;;;;9.45;8.15;;;;;;;17.67;67.98;100767.59;5033444;28;20107;-59
2022/07/12 05:53:29;;;;;;;12.18;8.98;;;;;;;17.67;68.23;100767.59;5033671;28;20404;-58
2022/07/12 05:56:13;;;;;;;11.73;8.60;;;;;;;17.64;68.11;100764.09;5033743;28;20047;-59
2022/07/12 05:58:59;;;;;;;11.40;8.50;;;;;;;17.67;68.14;100770.19;5032984;28;20172;-58
2022/07/12 06:01:44;;;;;;;10.15;9.15;;;;;;;17.67;68.18;100772.81;5033499;28;20060;-59
2022/07/12 06:04:28;;;;;;;11.23;9.80;;;;;;;17.65;68.18;100763.22;5033264;28;20420;-59
2022/07/12 06:07:12;;;;;;;10.45;8.85;;;;;;;17.66;68.18;100769.31;5033088;28;20057;-60
2022/07/12 06:09:56;;;;;;;9.52;8.63;;;;;;;17.67;67.88;100765.81;5033104;28;20045;-59
2022/07/12 06:12:42;;;;;;;12.32;9.25;;;;;;;17.69;68.25;100778.91;5033509;28;20193;-60
2022/07/12 06:15:26;;;;;;;13.48;10.27;;;;;;;17.68;68.22;100780.66;5033710;28;20084;-60
2022/07/12 06:18:11;;;;;;;17.10;10.52;;;;;;;17.69;68.36;100781.53;5033506;28;20413;-59
2022/07/12 06:20:55;;;;;;;12.23;10.38;;;;;;;17.69;68.24;100787.66;5032364;28;20052;-60
2022/07/12 06:23:39;;;;;;;14.38;11.13;;;;;;;17.70;68.30;100783.28;5033513;28;20060;-59
2022/07/12 06:26:23;;;;;;;12.55;10.75;;;;;;;17.70;68.28;100799.91;5033690;28;20048;-60
2022/07/12 06:29:07;;;;;;;14.32;10.95;;;;;;;17.69;67.93;100806.00;5033707;28;20052;-60
2022/07/12 06:31:51;;;;;;;13.45;10.85;;;;;;;17.68;68.44;100799.03;5033291;28;20044;-60
2022/07/12 06:34:37;;;;;;;12.95;10.65;;;;;;;17.70;68.16;100807.75;5033547;28;20144;-59
2022/07/12 06:37:21;;;;;;;14.20;10.80;;;;;;;17.71;68.41;100808.63;5033324;28;20068;-60
2022/07/12 06:40:06;;;;;;;10.90;9.18;;;;;;;17.71;68.35;100811.25;5033381;28;20087;-60
2022/07/12 06:42:50;;;;;;;13.82;10.05;;;;;;;17.71;68.35;100808.63;5032286;28;20049;-60
2022/07/12 06:45:34;;;;;;;11.77;10.30;;;;;;;17.71;68.26;100812.13;5033314;28;20067;-60
2022/07/12 06:48:18;;;;;;;11.35;9.60;;;;;;;17.71;68.40;100814.75;5032845;28;20425;-60
2022/07/12 06:51:03;;;;;;;10.68;9.57;;;;;;;17.71;68.27;100814.75;5033805;28;20627;-60
2022/07/12 06:53:46;;;;;;;11.07;9.48;;;;;;;17.70;68.29;100810.38;5033289;28;20040;-59
2022/07/12 06:56:30;;;;;;;11.10;9.95;;;;;;;17.71;68.04;100806.88;5033281;28;20045;-60
2022/07/12 06:59:14;;;;;;;10.88;9.23;;;;;;;17.71;68.31;100811.25;5033000;28;20045;-59
2022/07/12 07:01:58;;;;;;;12.30;9.15;;;;;;;17.72;68.42;100818.22;5032203;28;20484;-58
2022/07/12 07:04:42;;;;;;;10.43;8.85;;;;;;;17.73;68.32;100814.72;5033484;28;20092;-58
2022/07/12 07:07:26;;;;;;;10.52;8.90;;;;;;;17.74;68.42;100811.25;5032900;28;20052;-58
2022/07/12 07:10:10;;;;;;;13.15;9.57;;;;;;;17.74;68.29;100816.47;5036942;28;20519;-59
2022/07/12 07:12:54;;;;;;;11.73;9.85;;;;;;;17.74;68.25;100819.09;5036782;28;20052;-59
2022/07/12 07:15:42;;;;;;;11.52;9.65;;;;;;;17.74;68.46;100825.22;5035969;28;20071;-58
2022/07/12 07:18:27;;;;;;;10.95;9.45;;;;;;;17.75;68.35;100826.09;5036180;28;20060;-58
2022/07/12 07:21:11;;;;;;;10.60;9.55;;;;;;;17.76;68.26;100827.84;5036276;28;20040;-58
2022/07/12 07:24:00;;;;;;;12.60;9.43;;;;;;;17.76;68.32;100827.84;5036555;28;20040;-58
2022/07/12 07:26:44;;;;;;;10.30;9.23;;;;;;;17.76;68.43;100822.59;5036180;28;20048;-58
2022/07/12 07:32:31;;;;;;;10.50;9.32;;;;;;;17.77;68.28;100824.34;5036086;28;20063;-58
2022/07/12 07:35:15;;;;;;;9.98;8.63;;;;;;;17.78;68.35;100828.72;5035992;28;20057;-59
2022/07/12 07:37:58;;;;;;;11.95;8.70;;;;;;;17.77;68.30;100825.22;5036642;28;20079;-60
2022/07/12 07:40:43;;;;;;;10.10;9.07;;;;;;;17.79;68.28;100825.22;5036194;28;20088;-59
2022/07/12 07:43:27;;;;;;;11.55;9.15;;;;;;;17.79;68.36;100826.09;5035510;28;20040;-58
2022/07/12 07:46:14;;;;;;;10.32;8.98;;;;;;;17.79;68.14;100823.47;5036200;28;20100;-58
2022/07/12 07:48:58;;;;;;;9.45;8.20;;;;;;;17.79;68.21;100833.94;5036401;28;20049;-59
2022/07/12 07:51:41;;;;;;;11.30;8.68;;;;;;;17.80;68.33;100829.59;5035924;28;20107;-59
2022/07/12 07:54:25;;;;;;;9.93;8.93;;;;;;;17.80;68.17;100827.84;5036490;28;20543;-59
2022/07/12 07:57:10;;;;;;;9.82;8.48;;;;;;;17.83;68.24;100823.47;5034661;28;20076;-58
2022/07/12 07:59:53;;;;;;;;;;;;;;;17.80;68.15;100822.59;5036261;28;20087;-58
2022/07/12 08:02:38;;;;;;;7.70;6.80;;;;;;;17.80;68.34;100826.97;5036001;28;20012;-60
2022/07/12 08:05:22;;;;;;;;;;;;;;;17.80;68.14;100827.84;5036388;28;20045;-60
2022/07/12 08:08:06;;;;;;;9.30;7.63;;;;;;;17.80;68.22;100829.59;5035852;28;19920;-58
2022/07/12 08:10:50;;;;;;;9.02;8.13;;;;;;;17.81;68.27;100833.97;5035974;28;20152;-60
2022/07/12 08:13:34;;;;;;;9.57;8.48;;;;;;;17.81;68.27;100829.56;5036106;28;20405;-59
2022/07/12 08:16:19;;;;;;;9.75;7.70;;;;;;;17.83;68.26;100826.09;5035444;28;20071;-60
2022/07/12 08:19:04;;;;;;;8.38;7.50;;;;;;;17.83;68.27;100829.56;5035613;28;20132;-60
2022/07/12 08:21:48;;;;;;;8.30;7.10;;;;;;;17.85;68.18;100826.97;5033755;28;20415;-60
2022/07/12 08:24:32;;;;;;;10.07;7.43;;;;;;;17.85;68.20;100817.31;5035906;28;20136;-60
2022/07/12 08:27:16;;;;;;;10.23;8.25;;;;;;;17.84;68.23;100812.97;5034533;28;20460;-59
2022/07/12 08:30:00;;;;;;;8.63;7.72;;;;;;;17.87;68.04;100820.81;5035379;28;20055;-58
2022/07/12 08:32:45;;;;;;;9.57;8.20;;;;;;;17.87;68.19;100812.97;5035193;28;20095;-58
2022/07/12 08:35:29;;;;;;;8.30;7.50;;;;;;;17.88;68.06;100812.09;5034307;28;20049;-58
2022/07/12 08:38:15;;;;;;;8.68;7.70;;;;;;;17.87;68.09;100815.59;5034489;28;20055;-60
2022/07/12 08:40:59;;;;;;;9.23;7.82;;;;;;;17.89;67.93;100813.84;5035524;28;20122;-60
2022/07/12 08:43:43;;;;;;;7.60;6.78;;;;;;;17.91;68.10;100805.94;5034564;28;20091;-60
2022/07/12 08:46:27;;;;;;;10.70;7.32;;;;;;;17.91;68.07;100809.47;5035668;28;20055;-59
2022/07/12 08:49:11;;;;;;;7.85;6.68;;;;;;;17.91;68.16;100814.72;5035422;28;20111;-59
2022/07/12 08:51:55;;;;;;;9.13;7.10;;;;;;;17.94;67.95;100808.56;5035333;28;20075;-60
2022/07/12 08:54:39;;;;;;;11.95;7.03;;;;;;;17.96;68.07;100814.69;5034565;28;20049;-60
2022/07/12 08:57:30;;;;;;;;;;;;;;;17.94;68.19;100816.44;5034835;28;20107;-60
2022/07/12 09:00:15;;;;;;;7.50;6.40;;;;;;;17.95;67.86;100826.06;5034758;28;20012;-59
2022/07/12 09:03:03;;;;;;;7.85;6.65;;;;;;;17.97;68.06;100816.44;5034385;28;20140;-60
2022/07/12 09:05:49;;;;;;;6.20;5.55;;;;;;;17.98;67.96;100809.50;5033723;28;20140;-60
2022/07/12 09:08:33;;;;;;;7.05;6.28;;;;;;;17.97;67.61;100813.81;5034021;28;20095;-60
2022/07/12 09:11:17;;;;;;;7.30;6.25;;;;;;;18.00;67.98;100815.56;5034658;28;20416;-60
2022/07/12 09:14:02;;;;;;;12.23;6.80;;;;;;;17.99;68.06;100813.84;5034684;28;20052;-60
2022/07/12 09:17:12;;;;;;;6.93;5.88;;;;;;;18.00;67.86;100805.09;5034421;28;20519;-60
2022/07/12 09:19:57;;;;;;;6.20;5.60;;;;;;;18.01;68.02;100810.34;5034608;28;20056;-60
2022/07/12 09:22:52;;;;;;;6.55;5.70;;;;;;;18.03;67.45;100815.56;5034263;28;20532;-60
2022/07/12 09:25:37;;;;;;;7.20;5.75;;;;;;;18.04;67.72;100823.47;5034305;28;20416;-60
2022/07/12 09:28:22;;;;;;;6.20;5.32;;;;;;;18.05;67.75;100821.69;5034393;28;20167;-60
2022/07/12 09:31:05;;;;;;;9.25;5.50;;;;;;;18.05;67.74;100826.94;5033644;28;20607;-60
2022/07/12 09:37:03;;;;;;;6.25;5.40;;;;;;;18.06;67.82;100837.41;5033961;28;20523;-60
2022/07/12 09:39:53;;;;;;;6.38;5.53;;;;;;;18.06;67.75;100836.56;5033394;28;20447;-60
2022/07/12 09:42:39;;;;;;;5.82;5.22;;;;;;;18.06;67.68;100832.16;5033093;28;20107;-60
2022/07/12 09:45:23;;;;;;;5.72;5.13;;;;;;;18.08;67.90;100834.81;5034214;28;20052;-59
2022/07/12 09:48:11;;;;;;;5.93;5.32;;;;;;;18.10;67.70;100839.16;5033777;28;20132;-59
2022/07/12 09:50:57;;;;;;;6.82;5.20;;;;;;;18.13;67.49;100835.69;5032928;28;20044;-59
2022/07/12 09:53:46;;;;;;;5.65;5.05;;;;;;;18.15;67.48;100839.16;5033834;28;20045;-59
2022/07/12 09:56:35;;;;;;;9.10;4.90;;;;;;;18.18;67.45;100836.53;5032456;28;20481;-59
2022/07/12 09:59:23;;;;;;;6.47;5.10;;;;;;;18.21;67.39;100840.91;5032987;28;20502;-59
2022/07/12 10:02:09;;;;;;;5.60;5.03;;;;;;;18.20;67.53;100841.78;5033061;28;20091;-59
2022/07/12 10:04:55;;;;;;;5.93;5.32;;;;;;;18.21;67.59;100838.28;5032564;28;20047;-59
2022/07/12 10:07:39;;;;;;;5.80;4.63;;;;;;;18.21;67.38;100838.28;5034075;28;20091;-59
2022/07/12 10:10:24;;;;;;;5.38;4.85;;;;;;;18.22;67.08;100838.28;5033838;28;20503;-59
2022/07/12 10:13:09;;;;;;;5.53;4.45;;;;;;;18.23;67.24;100834.78;5032671;28;20102;-59
2022/07/12 10:16:00;;;;;;;5.55;4.57;;;;;;;18.24;67.16;100841.75;5033121;28;20087;-59
2022/07/12 10:18:44;;;;;;;5.15;4.57;;;;;;;18.25;67.17;100846.13;5033062;28;20495;-58
2022/07/12 10:21:29;;;;;;;5.43;4.45;;;;;;;18.25;67.15;100840.88;5032920;28;20100;-59
2022/07/12 10:24:31;;;;;;;5.22;4.43;;;;;;;18.26;67.12;100839.13;5033479;28;20068;-59
2022/07/12 10:27:15;;;;;;;6.97;5.15;;;;;;;18.25;67.04;100833.00;5033407;28;20056;-58
2022/07/12 10:30:14;;;;;;;8.82;4.03;;;;;;;18.26;67.29;100828.63;5033527;28;20443;-59
2022/07/12 10:32:59;;;;;;;5.03;4.50;;;;;;;18.26;67.07;100829.50;5033402;28;20060;-59
2022/07/12 10:36:05;;;;;;;7.82;4.07;;;;;;;18.28;67.20;100828.63;5032279;28;20045;-59
2022/07/12 10:39:13;;;;;;;6.20;4.22;;;;;;;18.29;67.16;100820.75;5032487;28;20049;-61
2022/07/12 10:42:06;;;;;;;4.65;3.95;;;;;;;18.29;66.94;100822.53;5032561;28;20433;-60
2022/07/12 10:44:50;;;;;;;4.53;4.03;;;;;;;18.30;67.02;100816.38;5036189;28;20052;-60
2022/07/12 10:47:56;;;;;;;4.57;4.05;;;;;;;18.30;66.98;100817.25;5037614;28;20527;-60
2022/07/12 10:50:48;;;;;;;4.43;4.03;;;;;;;18.32;67.09;100817.22;5036685;28;20076;-59
2022/07/12 10:53:44;;;;;;;4.32;3.92;;;;;;;18.35;67.05;100815.50;5036807;28;20044;-59
2022/07/12 10:56:32;;;;;;;4.15;3.63;;;;;;;18.36;66.75;100805.84;5036943;28;20056;-59
2022/07/12 10:59:16;;;;;;;4.47;3.97;;;;;;;18.36;66.73;100801.50;5036727;28;20436;-59
2022/07/12 11:02:00;;;;;;;4.38;3.58;;;;;;;18.36;67.08;100798.00;5037182;28;20060;-59
2022/07/12 11:04:47;;;;;;;5.43;3.85;;;;;;;18.39;66.98;100803.22;5036740;28;20128;-59
2022/07/12 11:07:31;;;;;;;5.88;4.38;;;;;;;18.38;66.89;100799.72;5037345;28;20133;-59
2022/07/12 11:10:15;;;;;;;4.07;3.67;;;;;;;18.39;66.82;100793.59;5036982;28;20133;-58
2022/07/12 11:13:00;;;;;;;5.63;4.22;;;;;;;18.41;66.89;100797.09;5036776;28;20060;-58
2022/07/12 11:15:58;;;;;;;10.82;3.85;;;;;;;18.43;66.41;100797.09;5036684;28;20044;-59
2022/07/12 11:18:43;;;;;;;5.65;4.13;;;;;;;18.45;66.69;100792.69;5036729;28;20076;-59
2022/07/12 11:21:27;;;;;;;5.53;4.53;;;;;;;18.47;66.19;100790.94;5035612;28;20530;-60
2022/07/12 11:24:24;;;;;;;6.07;4.20;;;;;;;18.46;66.80;100783.94;5036266;28;20048;-61
2022/07/12 11:27:12;;;;;;;4.93;3.70;;;;;;;18.47;66.40;100782.19;5035811;28;20060;-60
2022/07/12 11:30:00;;;;;;;3.95;3.55;;;;;;;18.47;66.52;100783.06;5036011;28;20408;-60
2022/07/12 11:32:47;;;;;;;4.88;3.40;;;;;;;18.46;66.40;100781.31;5036622;28;20044;-60
2022/07/12 11:35:31;;;;;;;6.68;3.30;;;;;;;18.48;66.33;100782.19;5036370;28;20117;-60
2022/07/12 11:38:26;;;;;;;3.78;3.38;;;;;;;18.48;66.28;100773.44;5035226;28;20048;-59
2022/07/12 11:41:10;;;;;;;;;;;;;;;18.48;66.56;100770.81;5035666;28;20080;-60
2022/07/12 11:43:57;;;;;;;3.92;3.50;;;;;;;18.47;66.48;100780.44;5036392;28;20004;-60
2022/07/12 11:46:49;;;;;;;4.38;3.25;;;;;;;18.48;66.27;100783.94;5035615;28;20052;-60
2022/07/12 11:49:36;;;;;;;5.15;3.65;;;;;;;18.49;66.34;100775.19;5036092;28;20103;-60
2022/07/12 11:52:22;;;;;;;4.63;3.25;;;;;;;18.49;66.40;100769.94;5035038;28;20087;-60
2022/07/12 11:55:09;;;;;;;3.08;2.78;;;;;;;18.49;66.51;100767.31;5033991;28;20412;-60
2022/07/12 11:58:04;;;;;;;4.00;3.17;;;;;;;18.50;66.27;100767.28;5034904;28;20523;-60
2022/07/12 12:00:49;;;;;;;3.60;2.83;;;;;;;18.52;66.26;100770.78;5034864;28;20493;-60
2022/07/12 12:03:42;;;;;;;3.65;3.10;;;;;;;18.53;65.85;100758.56;5034727;28;20056;-59
2022/07/12 12:06:30;;;;;;;4.53;3.35;;;;;;;18.54;65.99;100769.03;5034950;28;20462;-60
2022/07/12 12:09:14;;;;;;;3.97;2.88;;;;;;;18.56;65.83;100762.03;5034963;28;20048;-60
2022/07/12 12:11:58;;;;;;;5.78;3.55;;;;;;;18.57;65.78;100757.63;5035084;28;20052;-60
2022/07/12 12:14:47;;;;;;;4.72;3.40;;;;;;;18.59;65.77;100755.03;5035946;28;20045;-59
2022/07/12 12:17:32;;;;;;;5.78;3.63;;;;;;;18.59;65.75;100758.50;5034740;28;20040;-59
2022/07/12 12:20:34;;;;;;;3.80;3.22;;;;;;;18.62;65.94;100761.13;5034581;28;20416;-59
2022/07/12 12:23:22;;;;;;;4.03;3.30;;;;;;;18.62;65.64;100760.22;5034892;28;20061;-58
2022/07/12 12:26:09;;;;;;;4.05;3.40;;;;;;;18.63;65.57;100755.00;5035104;28;20056;-59
2022/07/12 12:28:54;;;;;;;4.55;3.05;;;;;;;18.63;65.62;100754.09;5035157;28;20463;-59
2022/07/12 12:31:41;;;;;;;3.63;2.90;;;;;;;18.63;65.75;100752.38;5034702;28;20095;-60
2022/07/12 12:34:24;;;;;;;4.70;3.58;;;;;;;18.64;65.44;100747.97;5035146;28;20052;-60
2022/07/12 12:37:11;;;;;;;5.18;3.13;;;;;;;18.65;65.62;100749.72;5035340;28;20135;-60
2022/07/12 12:39:56;;;;;;;3.75;3.05;;;;;;;18.65;65.61;100755.84;5034943;28;20048;-60
2022/07/12 12:42:40;;;;;;;3.03;2.55;;;;;;;18.67;65.65;100753.22;5035029;28;20588;-60
2022/07/12 12:45:25;;;;;;;3.75;3.13;;;;;;;18.68;65.26;100747.06;5035219;28;20125;-60
2022/07/12 12:48:09;;;;;;;3.38;3.03;;;;;;;18.66;65.39;100730.47;5033749;28;20100;-60
2022/07/12 12:51:01;;;;;;;6.57;3.10;;;;;;;18.67;65.51;100730.47;5034945;28;20048;-60
2022/07/12 12:53:55;;;;;;;3.22;2.90;;;;;;;18.68;65.25;100732.22;5034243;28;20052;-60
2022/07/12 12:56:40;;;;;;;4.30;3.00;;;;;;;18.70;65.30;100727.78;5035086;28;20570;-59